Time,TemperatureF,DewpointF,PressureIn,WindDirection,WindDirectionDegrees,WindSpeedMPH,WindSpeedGustMPH,Humidity,HourlyPrecipIn,Conditions,Clouds,dailyrainin,SolarRadiationWatts/m^2,SoftwareType,DateUTC
2013-06-01 00:01:00,35.0,32.0,-100.00,East,101,1.0,3.0,87,0.00,,,0.05,0.000000,,2013-06-01 06:01:00,
2013-06-01 00:22:00,33.0,30.0,-100.00,East,97,1.0,4.0,90,0.00,,,0.04,0.000000,,2013-06-01 06:22:00,
2013-06-01 00:32:00,33.0,30.0,-100.00,East,97,1.0,4.0,90,0.00,,,0.04,0.000000,,2013-06-01 06:32:00,
2013-06-01 00:42:00,33.0,30.0,-100.00,East,97,1.0,4.0,90,0.00,,,0.04,0.000000,,2013-06-01 06:42:00,
2013-06-01 00:52:00,33.0,30.0,-100.00,East,97,1.0,4.0,90,0.00,,,0.04,0.000000,,2013-06-01 06:52:00,
2013-06-01 01:01:00,33.0,30.0,-100.00,East,97,1.0,4.0,90,0.00,,,0.04,0.000000,,2013-06-01 07:01:00,
2013-06-01 01:22:00,32.0,30.0,-100.00,ENE,67,1.0,3.0,91,0.00,,,0.04,0.000000,,2013-06-01 07:22:00,
2013-06-01 01:32:00,32.0,30.0,-100.00,ENE,67,1.0,3.0,91,0.00,,,0.04,0.000000,,2013-06-01 07:32:00,
2013-06-01 01:42:00,32.0,30.0,-100.00,ENE,67,1.0,3.0,91,0.00,,,0.04,0.000000,,2013-06-01 07:42:00,
2013-06-01 01:52:00,32.0,30.0,-100.00,ENE,67,1.0,3.0,91,0.00,,,0.04,0.000000,,2013-06-01 07:52:00,
2013-06-01 02:02:00,32.0,30.0,-100.00,ENE,67,1.0,3.0,91,0.00,,,0.04,0.000000,,2013-06-01 08:02:00,
2013-06-01 02:22:00,33.0,31.0,-100.00,ENE,63,1.0,3.0,91,0.00,,,0.04,0.000000,,2013-06-01 08:22:00,
2013-06-01 02:32:00,33.0,31.0,-100.00,ENE,63,1.0,3.0,91,0.00,,,0.04,0.000000,,2013-06-01 08:32:00,
2013-06-01 02:42:00,33.0,31.0,-100.00,ENE,63,1.0,3.0,91,0.00,,,0.04,0.000000,,2013-06-01 08:42:00,
2013-06-01 02:52:00,33.0,31.0,-100.00,ENE,63,1.0,3.0,91,0.00,,,0.04,0.000000,,2013-06-01 08:52:00,
2013-06-01 03:01:00,33.0,31.0,-100.00,ENE,63,1.0,3.0,91,0.00,,,0.04,0.000000,,2013-06-01 09:01:00,
2013-06-01 03:22:00,32.0,30.0,-100.00,East,82,1.0,5.0,92,0.00,,,0.04,0.000000,,2013-06-01 09:22:00,
2013-06-01 03:33:00,32.0,30.0,-100.00,East,82,1.0,5.0,92,0.00,,,0.04,0.000000,,2013-06-01 09:33:00,
2013-06-01 03:43:00,32.0,30.0,-100.00,East,82,1.0,5.0,92,0.00,,,0.04,0.000000,,2013-06-01 09:43:00,
2013-06-01 03:53:00,32.0,30.0,-100.00,East,82,1.0,5.0,92,0.00,,,0.04,0.000000,,2013-06-01 09:53:00,
2013-06-01 04:02:00,32.0,30.0,-100.00,East,82,1.0,5.0,92,0.00,,,0.04,0.000000,,2013-06-01 10:02:00,
2013-06-01 04:22:00,31.0,28.0,-100.00,ESE,110,1.0,4.0,89,0.00,,,0.04,0.000000,,2013-06-01 10:22:00,
2013-06-01 04:33:00,31.0,28.0,-100.00,ESE,110,1.0,4.0,89,0.00,,,0.04,0.000000,,2013-06-01 10:33:00,
2013-06-01 04:42:00,31.0,28.0,-100.00,ESE,110,1.0,4.0,89,0.00,,,0.04,0.000000,,2013-06-01 10:42:00,
2013-06-01 04:52:00,31.0,28.0,-100.00,ESE,110,1.0,4.0,89,0.00,,,0.04,0.000000,,2013-06-01 10:52:00,
2013-06-01 05:02:00,31.0,28.0,-100.00,ESE,110,1.0,4.0,89,0.00,,,0.04,0.000000,,2013-06-01 11:02:00,
2013-06-01 05:22:00,31.0,27.0,-100.00,NNE,21,1.0,4.0,84,0.00,,,0.04,0.000000,,2013-06-01 11:22:00,
2013-06-01 05:33:00,31.0,27.0,-100.00,NNE,21,1.0,4.0,84,0.00,,,0.04,0.000000,,2013-06-01 11:33:00,
2013-06-01 05:42:00,31.0,27.0,-100.00,NNE,21,1.0,4.0,84,0.00,,,0.04,0.000000,,2013-06-01 11:42:00,
2013-06-01 05:52:00,31.0,27.0,-100.00,NNE,21,1.0,4.0,84,0.00,,,0.04,0.000000,,2013-06-01 11:52:00,
2013-06-01 06:01:00,31.0,27.0,-100.00,NNE,21,1.0,4.0,84,0.00,,,0.04,0.000000,,2013-06-01 12:01:00,
2013-06-01 06:22:00,31.0,27.0,-100.00,SE,139,1.0,5.0,84,0.00,,,0.04,1.000000,,2013-06-01 12:22:00,
2013-06-01 06:32:00,31.0,27.0,-100.00,SE,139,1.0,5.0,84,0.00,,,0.04,1.000000,,2013-06-01 12:32:00,
2013-06-01 06:42:00,31.0,27.0,-100.00,SE,139,1.0,5.0,84,0.00,,,0.04,1.000000,,2013-06-01 12:42:00,
2013-06-01 06:52:00,31.0,27.0,-100.00,SE,139,1.0,5.0,84,0.00,,,0.04,1.000000,,2013-06-01 12:52:00,
2013-06-01 07:01:00,31.0,27.0,-100.00,SE,139,1.0,5.0,84,0.00,,,0.04,1.000000,,2013-06-01 13:01:00,
2013-06-01 07:22:00,33.0,26.0,-100.00,ENE,67,1.0,6.0,76,0.00,,,0.03,32.000000,,2013-06-01 13:22:00,
2013-06-01 07:32:00,33.0,26.0,-100.00,ENE,67,1.0,6.0,76,0.00,,,0.03,32.000000,,2013-06-01 13:32:00,
2013-06-01 07:42:00,33.0,26.0,-100.00,ENE,67,1.0,6.0,76,0.00,,,0.03,32.000000,,2013-06-01 13:42:00,
2013-06-01 07:52:00,33.0,26.0,-100.00,ENE,67,1.0,6.0,76,0.00,,,0.03,32.000000,,2013-06-01 13:52:00,
2013-06-01 08:01:00,33.0,26.0,-100.00,ENE,67,1.0,6.0,76,0.00,,,0.03,32.000000,,2013-06-01 14:01:00,
2013-06-01 08:21:00,43.0,31.0,-100.00,SW,236,0.0,4.0,63,0.00,,,0.03,174.000000,,2013-06-01 14:21:00,
2013-06-01 08:32:00,43.0,31.0,-100.00,SW,236,0.0,4.0,63,0.00,,,0.03,174.000000,,2013-06-01 14:32:00,
2013-06-01 09:22:00,55.0,31.0,-100.00,NNW,335,1.0,4.0,39,-99.99,,,0.02,513.000000,,2013-06-01 15:22:00,
2013-06-01 09:33:00,55.0,31.0,-100.00,NNW,335,1.0,4.0,39,-99.99,,,0.02,513.000000,,2013-06-01 15:33:00,
2013-06-01 10:23:00,56.0,27.0,-100.00,WSW,255,2.0,6.0,32,-99.99,,,0.01,701.000000,,2013-06-01 16:23:00,
2013-06-01 10:33:00,56.0,27.0,-100.00,WSW,255,2.0,6.0,32,-99.99,,,0.01,701.000000,,2013-06-01 16:33:00,
2013-06-01 10:52:00,56.0,27.0,-100.00,WSW,255,2.0,6.0,32,-99.99,,,0.01,701.000000,,2013-06-01 16:52:00,
2013-06-01 11:02:00,56.0,27.0,-100.00,WSW,255,2.0,6.0,32,-99.99,,,0.01,701.000000,,2013-06-01 17:02:00,
2013-06-01 11:22:00,60.0,28.0,-100.00,NE,41,2.0,10.0,30,-99.99,,,0.00,860.000000,,2013-06-01 17:22:00,
2013-06-01 11:32:00,60.0,28.0,-100.00,NE,41,2.0,10.0,30,-99.99,,,0.00,860.000000,,2013-06-01 17:32:00,
2013-06-01 11:52:00,60.0,28.0,-100.00,NE,41,2.0,10.0,30,-99.99,,,0.00,860.000000,,2013-06-01 17:52:00,
2013-06-01 12:01:00,60.0,28.0,-100.00,NE,41,2.0,10.0,30,-99.99,,,0.00,860.000000,,2013-06-01 18:01:00,
2013-06-01 12:22:00,59.0,22.0,-100.00,SW,218,3.0,10.0,24,-99.99,,,-99.99,979.000000,,2013-06-01 18:22:00,
2013-06-01 12:32:00,59.0,22.0,-100.00,SW,218,3.0,10.0,24,-99.99,,,-99.99,979.000000,,2013-06-01 18:32:00,
2013-06-01 12:42:00,59.0,22.0,-100.00,SW,218,3.0,10.0,24,-99.99,,,-99.99,979.000000,,2013-06-01 18:42:00,
2013-06-01 12:52:00,59.0,22.0,-100.00,SW,218,3.0,10.0,24,-99.99,,,-99.99,979.000000,,2013-06-01 18:52:00,
2013-06-01 13:01:00,59.0,22.0,-100.00,SW,218,3.0,10.0,24,-99.99,,,-99.99,979.000000,,2013-06-01 19:01:00,
2013-06-01 13:21:00,62.0,26.0,-100.00,WNW,290,2.0,9.0,25,0.00,,,0.00,1043.000000,,2013-06-01 19:21:00,
2013-06-01 13:32:00,62.0,26.0,-100.00,WNW,290,2.0,9.0,25,0.00,,,0.00,1043.000000,,2013-06-01 19:32:00,
2013-06-01 13:42:00,62.0,26.0,-100.00,WNW,290,2.0,9.0,25,0.00,,,0.00,1043.000000,,2013-06-01 19:42:00,
2013-06-01 13:52:00,62.0,26.0,-100.00,WNW,290,2.0,9.0,25,0.00,,,0.00,1043.000000,,2013-06-01 19:52:00,
2013-06-01 14:01:00,62.0,26.0,-100.00,WNW,290,2.0,9.0,25,0.00,,,0.00,1043.000000,,2013-06-01 20:01:00,
2013-06-01 14:22:00,65.0,29.0,-100.00,ENE,75,2.0,9.0,26,0.00,,,0.00,1054.000000,,2013-06-01 20:22:00,
2013-06-01 14:32:00,65.0,29.0,-100.00,ENE,75,2.0,9.0,26,0.00,,,0.00,1054.000000,,2013-06-01 20:32:00,
2013-06-01 14:42:00,65.0,29.0,-100.00,ENE,75,2.0,9.0,26,0.00,,,0.00,1054.000000,,2013-06-01 20:42:00,
2013-06-01 14:52:00,65.0,29.0,-100.00,ENE,75,2.0,9.0,26,0.00,,,0.00,1054.000000,,2013-06-01 20:52:00,
2013-06-01 15:01:00,65.0,29.0,-100.00,ENE,75,2.0,9.0,26,0.00,,,0.00,1054.000000,,2013-06-01 21:01:00,
2013-06-01 15:22:00,66.0,31.0,-100.00,WNW,297,2.0,9.0,27,0.00,,,0.00,1008.000000,,2013-06-01 21:22:00,
2013-06-01 15:33:00,66.0,31.0,-100.00,WNW,297,2.0,9.0,27,0.00,,,0.00,1008.000000,,2013-06-01 21:33:00,
2013-06-01 15:43:00,66.0,31.0,-100.00,WNW,297,2.0,9.0,27,0.00,,,0.00,1008.000000,,2013-06-01 21:43:00,
2013-06-01 15:53:00,66.0,31.0,-100.00,WNW,297,2.0,9.0,27,0.00,,,0.00,1008.000000,,2013-06-01 21:53:00,
2013-06-01 16:02:00,66.0,31.0,-100.00,WNW,297,2.0,9.0,27,0.00,,,0.00,1008.000000,,2013-06-01 22:02:00,
2013-06-01 16:23:00,64.0,27.0,-100.00,WNW,290,1.0,9.0,25,0.00,,,0.00,872.000000,,2013-06-01 22:23:00,
2013-06-01 16:33:00,64.0,27.0,-100.00,WNW,290,1.0,9.0,25,0.00,,,0.00,872.000000,,2013-06-01 22:33:00,
2013-06-01 16:42:00,64.0,27.0,-100.00,WNW,290,1.0,9.0,25,0.00,,,0.00,872.000000,,2013-06-01 22:42:00,
2013-06-01 16:53:00,64.0,27.0,-100.00,WNW,290,1.0,9.0,25,0.00,,,0.00,872.000000,,2013-06-01 22:53:00,
2013-06-01 17:02:00,64.0,27.0,-100.00,WNW,290,1.0,9.0,25,0.00,,,0.00,872.000000,,2013-06-01 23:02:00,
2013-06-01 17:22:00,64.0,30.0,-100.00,West,275,2.0,8.0,28,0.00,,,0.00,698.000000,,2013-06-01 23:22:00,
2013-06-01 17:32:00,64.0,30.0,-100.00,West,275,2.0,8.0,28,0.00,,,0.00,698.000000,,2013-06-01 23:32:00,
2013-06-01 17:42:00,64.0,30.0,-100.00,West,275,2.0,8.0,28,0.00,,,0.00,698.000000,,2013-06-01 23:42:00,
2013-06-01 17:52:00,64.0,30.0,-100.00,West,275,2.0,8.0,28,0.00,,,0.00,698.000000,,2013-06-01 23:52:00,
2013-06-01 18:02:00,64.0,30.0,-100.00,West,275,2.0,8.0,28,0.00,,,0.00,698.000000,,2013-06-02 00:02:00,
2013-06-01 18:22:00,61.0,32.0,-100.00,WSW,249,2.0,10.0,34,0.00,,,0.00,365.000000,,2013-06-02 00:22:00,
2013-06-01 18:32:00,61.0,32.0,-100.00,WSW,249,2.0,10.0,34,0.00,,,0.00,365.000000,,2013-06-02 00:32:00,
2013-06-01 18:42:00,61.0,32.0,-100.00,WSW,249,2.0,10.0,34,0.00,,,0.00,365.000000,,2013-06-02 00:42:00,
2013-06-01 18:52:00,61.0,32.0,-100.00,WSW,249,2.0,10.0,34,0.00,,,0.00,365.000000,,2013-06-02 00:52:00,
2013-06-01 19:01:00,61.0,32.0,-100.00,WSW,249,2.0,10.0,34,0.00,,,0.00,365.000000,,2013-06-02 01:01:00,
2013-06-01 19:22:00,59.0,34.0,-100.00,SSW,193,1.0,7.0,39,0.00,,,0.00,60.000000,,2013-06-02 01:22:00,
2013-06-01 19:32:00,59.0,34.0,-100.00,SSW,193,1.0,7.0,39,0.00,,,0.00,60.000000,,2013-06-02 01:32:00,
2013-06-01 19:42:00,59.0,34.0,-100.00,SSW,193,1.0,7.0,39,0.00,,,0.00,60.000000,,2013-06-02 01:42:00,
2013-06-01 19:52:00,59.0,34.0,-100.00,SSW,193,1.0,7.0,39,0.00,,,0.00,60.000000,,2013-06-02 01:52:00,
2013-06-01 20:01:00,59.0,34.0,-100.00,SSW,193,1.0,7.0,39,0.00,,,0.00,60.000000,,2013-06-02 02:01:00,
2013-06-01 20:22:00,54.0,39.0,-100.00,WSW,241,0.0,5.0,57,0.00,,,0.00,36.000000,,2013-06-02 02:22:00,
2013-06-01 20:32:00,54.0,39.0,-100.00,WSW,241,0.0,5.0,57,0.00,,,0.00,36.000000,,2013-06-02 02:32:00,
2013-06-01 20:42:00,54.0,39.0,-100.00,WSW,241,0.0,5.0,57,0.00,,,0.00,36.000000,,2013-06-02 02:42:00,
2013-06-01 20:52:00,54.0,39.0,-100.00,WSW,241,0.0,5.0,57,0.00,,,0.00,36.000000,,2013-06-02 02:52:00,
2013-06-01 21:01:00,54.0,39.0,-100.00,WSW,241,0.0,5.0,57,0.00,,,0.00,36.000000,,2013-06-02 03:01:00,
2013-06-01 21:22:00,49.0,38.0,-100.00,SSE,152,1.0,2.0,65,0.00,,,0.00,19.000000,,2013-06-02 03:22:00,
2013-06-01 21:33:00,49.0,38.0,-100.00,SSE,152,1.0,2.0,65,0.00,,,0.00,19.000000,,2013-06-02 03:33:00,
2013-06-01 21:43:00,49.0,38.0,-100.00,SSE,152,1.0,2.0,65,0.00,,,0.00,19.000000,,2013-06-02 03:43:00,
2013-06-01 21:53:00,49.0,38.0,-100.00,SSE,152,1.0,2.0,65,0.00,,,0.00,19.000000,,2013-06-02 03:53:00,
2013-06-01 22:02:00,49.0,38.0,-100.00,SSE,152,1.0,2.0,65,0.00,,,0.00,19.000000,,2013-06-02 04:02:00,
2013-06-01 22:23:00,47.0,37.0,-100.00,SE,142,1.0,6.0,69,0.00,,,0.00,0.000000,,2013-06-02 04:23:00,
2013-06-01 22:33:00,47.0,37.0,-100.00,SE,142,1.0,6.0,69,0.00,,,0.00,0.000000,,2013-06-02 04:33:00,
2013-06-01 22:42:00,47.0,37.0,-100.00,SE,142,1.0,6.0,69,0.00,,,0.00,0.000000,,2013-06-02 04:42:00,
2013-06-01 22:53:00,47.0,37.0,-100.00,SE,142,1.0,6.0,69,0.00,,,0.00,0.000000,,2013-06-02 04:53:00,
2013-06-01 23:02:00,47.0,37.0,-100.00,SE,142,1.0,6.0,69,0.00,,,0.00,0.000000,,2013-06-02 05:02:00,
2013-06-01 23:22:00,46.0,36.0,-100.00,WSW,249,1.0,6.0,68,0.00,,,0.00,0.000000,,2013-06-02 05:22:00,
2013-06-01 23:32:00,46.0,36.0,-100.00,WSW,249,1.0,6.0,68,0.00,,,0.00,0.000000,,2013-06-02 05:32:00,
2013-06-01 23:42:00,46.0,36.0,-100.00,WSW,249,1.0,6.0,68,0.00,,,0.00,0.000000,,2013-06-02 05:42:00,
2013-06-01 23:52:00,46.0,36.0,-100.00,WSW,249,1.0,6.0,68,0.00,,,0.00,0.000000,,2013-06-02 05:52:00,